Greens Farms, Connecticut
Current Conditions -  °F | °C
As of 12:33 PM on Wednesday 26 Nov 2014 (Local Time) from KBDR Reporting Station
Moderate Rain Moderate Rain  
Wind Chill: 27°   Ceiling: 700
Heat Index: 36°   Visibility: 2mi
Dew Point: 34°   Wind: 14mph
Humidity: 93%   Direction: 40°NE
Pressure: 29.99"   Gusts: NA
Location:  41.12°N, 73.32°W
Report Text: KBDR 261733Z 04012KT 2SM RA BR BKN007 BKN014 OVC023 02/01 A2999 RMK AO2 VIS 1 1/4 R29 SE P0007 T00220011
Loading
Personal Weather Stations






























Interactive Weather Map New forecast layout! Learn more

10-Day Weather Forecast

Advertisements
Track Severe Weather on mobile